createdAt,value
2022-08-05T00:02:20.950Z,1.58
2022-08-05T00:04:47.520Z,1.50
2022-08-05T00:07:59.425Z,1.60
2022-08-05T00:10:09.212Z,1.60
2022-08-05T00:12:35.699Z,1.52
2022-08-05T00:15:57.583Z,1.60
2022-08-05T00:18:08.605Z,1.50
2022-08-05T00:20:35.107Z,1.23
2022-08-05T00:23:02.758Z,1.50
2022-08-05T00:25:46.198Z,1.40
2022-08-05T00:28:13.226Z,1.52
2022-08-05T00:30:41.078Z,1.48
2022-08-05T00:33:15.514Z,1.70
2022-08-05T00:36:16.487Z,1.40
2022-08-05T00:38:44.282Z,1.30
2022-08-05T00:41:11.852Z,1.35
2022-08-05T00:43:47.030Z,1.48
2022-08-05T00:46:16.556Z,1.33
2022-08-05T00:48:50.254Z,1.50
2022-08-05T00:51:50.693Z,1.60
2022-08-05T00:54:05.418Z,1.50
2022-08-05T00:56:31.968Z,1.40
2022-08-05T00:58:59.211Z,1.35
2022-08-05T01:01:42.645Z,1.40
2022-08-05T01:04:14.152Z,1.50
2022-08-05T01:06:43.652Z,1.50
2022-08-05T01:09:13.012Z,1.47
2022-08-05T01:11:39.818Z,1.52
2022-08-05T01:14:16.545Z,1.48
2022-08-05T01:16:52.515Z,1.80
2022-08-05T01:19:30.102Z,1.58
2022-08-05T01:22:24.078Z,1.42
2022-08-05T01:24:50.937Z,1.42
2022-08-05T01:27:23.476Z,1.58
2022-08-05T01:29:52.653Z,1.38
2022-08-05T01:32:23.454Z,1.55
2022-08-05T01:35:10.469Z,1.35
2022-08-05T01:37:44.332Z,1.35
2022-08-05T01:40:12.639Z,1.38
2022-08-05T01:42:40.071Z,1.42
2022-08-05T01:45:08.176Z,1.15
2022-08-05T01:47:39.208Z,1.60
2022-08-05T01:50:08.123Z,1.45
2022-08-05T01:52:43.185Z,1.40
2022-08-05T01:55:11.829Z,1.50
2022-08-05T01:58:10.035Z,1.45
2022-08-05T02:00:30.112Z,1.38
2022-08-05T02:03:03.503Z,1.40
2022-08-05T02:05:34.347Z,1.40
2022-08-05T02:08:02.798Z,1.40
2022-08-05T02:10:31.235Z,1.55
2022-08-05T02:13:16.252Z,1.10
2022-08-05T02:15:55.425Z,1.30
2022-08-05T02:18:31.819Z,1.10
2022-08-05T02:21:05.744Z,1.35
2022-08-05T02:23:40.577Z,1.35
2022-08-05T02:26:08.202Z,1.45
2022-08-05T02:28:41.763Z,1.15
2022-08-05T02:31:15.990Z,1.20
2022-08-05T02:33:48.407Z,1.17
2022-08-05T02:36:16.603Z,1.27
2022-08-05T02:38:52.919Z,1.35
2022-08-05T02:41:21.228Z,1.45
2022-08-05T02:44:02.774Z,1.30
2022-08-05T02:46:43.999Z,1.33
2022-08-05T02:49:20.394Z,1.30
2022-08-05T02:52:03.608Z,1.00
2022-08-05T02:54:34.927Z,1.42
2022-08-05T02:57:03.807Z,1.30
2022-08-05T02:59:50.255Z,1.15
2022-08-05T03:02:22.813Z,1.33
2022-08-05T03:04:53.288Z,1.20
2022-08-05T03:08:00.073Z,1.23
2022-08-05T03:10:07.150Z,1.40
2022-08-05T03:12:34.483Z,1.27
2022-08-05T03:15:01.197Z,1.20
2022-08-05T03:17:28.417Z,1.23
2022-08-05T03:19:55.394Z,1.00
2022-08-05T03:22:31.925Z,1.13
2022-08-05T03:25:11.736Z,1.17
2022-08-05T03:28:00.062Z,1.20
2022-08-05T03:30:30.218Z,1.05
2022-08-05T03:33:01.407Z,1.30
2022-08-05T03:35:28.503Z,1.00
2022-08-05T03:37:58.431Z,1.10
2022-08-05T03:40:32.342Z,0.93
2022-08-05T03:42:59.434Z,1.20
2022-08-05T03:45:58.192Z,1.25
2022-08-05T03:48:22.012Z,1.13
2022-08-05T03:52:35.389Z,1.00
2022-08-05T03:55:50.895Z,1.10
2022-08-05T03:56:53.861Z,1.30
2022-08-05T03:59:24.630Z,1.23
2022-08-05T04:01:51.713Z,1.02
2022-08-05T04:04:21.213Z,1.13
2022-08-05T04:06:51.016Z,1.20
2022-08-05T04:09:26.163Z,1.83
2022-08-05T04:11:53.490Z,1.30
2022-08-05T04:14:29.799Z,1.20
2022-08-05T04:16:57.864Z,1.13
2022-08-05T04:19:24.645Z,1.23
2022-08-05T04:22:10.007Z,1.20
2022-08-05T04:24:43.865Z,1.20
2022-08-05T04:27:11.768Z,1.50
2022-08-05T04:29:38.755Z,1.20
2022-08-05T04:32:05.721Z,1.52
2022-08-05T04:34:35.309Z,1.10
2022-08-05T04:37:04.335Z,1.10
2022-08-05T04:39:32.173Z,1.33
2022-08-05T04:41:58.882Z,1.35
2022-08-05T04:44:29.837Z,1.20
2022-08-05T04:46:58.486Z,1.52
2022-08-05T04:49:38.894Z,1.20
2022-08-05T04:52:11.985Z,1.60
2022-08-05T04:54:38.420Z,1.40
2022-08-05T04:57:04.882Z,1.20
2022-08-05T04:59:38.924Z,1.50
2022-08-05T05:02:41.122Z,1.30
2022-08-05T05:05:01.878Z,1.48
2022-08-05T05:07:32.865Z,1.20
2022-08-05T05:10:05.403Z,1.50
2022-08-05T05:12:33.369Z,1.25
2022-08-05T05:17:57.128Z,1.38
2022-08-05T05:20:28.373Z,1.33
2022-08-05T05:22:55.364Z,1.20
2022-08-05T05:25:21.912Z,1.20
2022-08-05T05:27:59.564Z,1.30
2022-08-05T05:30:29.817Z,1.42
2022-08-05T05:33:00.540Z,1.42
2022-08-05T05:35:34.266Z,1.30
2022-08-05T05:38:05.477Z,1.00
2022-08-05T05:40:32.606Z,1.27
2022-08-05T05:43:01.988Z,1.42
2022-08-05T05:45:28.665Z,1.30
2022-08-05T05:48:06.196Z,1.50
2022-08-05T05:50:34.148Z,1.30
2022-08-05T05:53:00.664Z,1.38
2022-08-05T05:55:51.728Z,1.13
2022-08-05T05:58:13.573Z,1.33
2022-08-05T06:00:40.861Z,1.30
2022-08-05T06:03:28.624Z,1.35
2022-08-05T06:05:58.979Z,1.30
2022-08-05T06:08:32.732Z,1.30
2022-08-05T06:10:59.631Z,1.20
2022-08-05T06:13:26.759Z,1.27
2022-08-05T06:16:30.645Z,1.40
2022-08-05T06:18:39.785Z,1.20
2022-08-05T06:21:16.500Z,1.40
2022-08-05T06:23:44.227Z,1.30
2022-08-05T06:26:13.330Z,1.50
2022-08-05T06:28:46.953Z,1.20
2022-08-05T06:31:18.020Z,1.52
2022-08-05T06:34:06.862Z,1.45
2022-08-05T06:36:37.411Z,1.40
2022-08-05T06:39:21.879Z,1.38
2022-08-05T06:41:50.939Z,1.38
2022-08-05T06:44:18.774Z,1.50
2022-08-05T06:46:50.836Z,1.45
2022-08-05T06:49:17.711Z,1.58
2022-08-05T06:51:45.569Z,1.50
2022-08-05T06:54:18.268Z,1.42
2022-08-05T06:56:55.016Z,1.48
2022-08-05T06:59:38.481Z,1.50
2022-08-05T07:02:05.543Z,1.50
2022-08-05T07:04:32.030Z,1.25
2022-08-05T07:06:59.528Z,1.50
2022-08-05T07:09:25.993Z,1.65
2022-08-05T07:12:00.328Z,1.50
2022-08-05T07:14:45.468Z,1.50
2022-08-05T07:17:58.837Z,1.77
2022-08-05T07:20:31.593Z,1.80
2022-08-05T07:22:45.766Z,1.60
2022-08-05T07:25:54.237Z,1.35
2022-08-05T07:28:07.340Z,1.77
2022-08-05T07:30:38.877Z,1.60
2022-08-05T07:33:09.881Z,1.35
2022-08-05T07:36:04.399Z,1.27
2022-08-05T07:38:34.192Z,1.48
2022-08-05T07:41:17.172Z,1.45
2022-08-05T07:43:49.740Z,1.50
2022-08-05T07:46:24.681Z,1.55
2022-08-05T07:49:02.440Z,1.40
2022-08-05T07:51:36.347Z,1.45
2022-08-05T07:54:05.035Z,1.40
2022-08-05T07:57:02.421Z,1.48
2022-08-05T07:59:23.178Z,1.20
2022-08-05T08:01:58.056Z,1.40
2022-08-05T08:04:37.759Z,1.52
2022-08-05T08:07:06.981Z,1.30
2022-08-05T08:09:34.044Z,1.35
2022-08-05T08:12:08.317Z,1.48
2022-08-05T08:14:37.845Z,1.20
2022-08-05T08:17:16.462Z,1.15
2022-08-05T08:20:21.419Z,1.35
2022-08-05T08:22:30.530Z,1.40
2022-08-05T08:25:03.443Z,1.50
2022-08-05T08:27:40.235Z,1.40
2022-08-05T08:30:29.613Z,1.30
2022-08-05T08:33:02.598Z,1.30
2022-08-05T08:35:34.738Z,1.38
2022-08-05T08:38:07.705Z,1.50
2022-08-05T08:40:35.289Z,1.40
2022-08-05T08:45:19.384Z,1.20
2022-08-05T08:45:50.115Z,1.20
2022-08-05T08:48:42.895Z,1.20
2022-08-05T08:51:22.830Z,1.30
2022-08-05T08:53:51.171Z,1.20
2022-08-05T08:56:19.394Z,1.30
2022-08-05T08:58:48.992Z,1.30
2022-08-05T09:01:18.648Z,1.30
2022-08-05T09:03:54.557Z,1.30
2022-08-05T09:06:28.079Z,1.40
2022-08-05T09:08:57.101Z,1.50
2022-08-05T09:11:51.176Z,1.50
2022-08-05T09:14:58.768Z,1.60
2022-08-05T09:16:58.729Z,1.15
2022-08-05T09:19:28.054Z,1.50
2022-08-05T09:22:18.340Z,1.40
2022-08-05T09:24:59.982Z,1.40
2022-08-05T09:28:04.000Z,1.58
2022-08-05T09:30:24.023Z,1.35
2022-08-05T09:32:51.739Z,1.50
2022-08-05T09:35:26.871Z,1.50
2022-08-05T09:38:13.002Z,1.58
2022-08-05T09:40:44.621Z,1.65
2022-08-05T09:43:40.605Z,1.60
2022-08-05T09:46:22.711Z,1.55
2022-08-05T09:49:07.368Z,1.40
2022-08-05T09:51:42.387Z,1.50
2022-08-05T09:54:09.368Z,1.70
2022-08-05T09:56:40.508Z,1.55
2022-08-05T09:59:18.144Z,1.58
2022-08-05T10:01:46.542Z,1.55
2022-08-05T10:04:16.010Z,1.60
2022-08-05T10:06:58.672Z,1.50
2022-08-05T10:09:29.641Z,1.70
2022-08-05T10:12:18.499Z,1.70
2022-08-05T10:15:20.286Z,1.60
2022-08-05T10:18:04.420Z,1.60
2022-08-05T10:20:32.682Z,1.55
2022-08-05T10:23:00.519Z,1.60
2022-08-05T10:25:27.460Z,1.52
2022-08-05T10:28:13.232Z,1.73
2022-08-05T10:32:50.973Z,1.52
2022-08-05T10:33:29.592Z,1.65
2022-08-05T10:36:03.999Z,1.50
2022-08-05T10:38:33.061Z,1.50
2022-08-05T10:41:13.690Z,1.50
2022-08-05T10:44:01.356Z,1.40
2022-08-05T10:46:46.096Z,1.57
2022-08-05T10:49:17.669Z,1.48
2022-08-05T10:52:00.265Z,1.45
2022-08-05T10:54:56.933Z,1.38
2022-08-05T10:57:31.671Z,1.70
2022-08-05T11:00:17.877Z,1.30
2022-08-05T11:03:24.451Z,1.30
2022-08-05T11:06:04.186Z,1.40
2022-08-05T11:08:37.924Z,1.52
2022-08-05T11:11:24.638Z,1.30
2022-08-05T11:14:00.533Z,1.15
2022-08-05T11:16:33.696Z,1.20
2022-08-05T11:20:10.501Z,1.45
2022-08-05T11:22:24.294Z,1.40
2022-08-05T11:26:03.185Z,1.45
2022-08-05T11:28:00.553Z,1.35
2022-08-05T11:30:27.424Z,1.10
2022-08-05T11:33:21.362Z,1.30
2022-08-05T11:36:08.248Z,1.40
2022-08-05T11:38:37.110Z,1.52
2022-08-05T11:41:56.267Z,1.25
2022-08-05T11:44:21.509Z,1.30
2022-08-05T11:47:11.098Z,1.30
2022-08-05T11:49:42.913Z,1.10
2022-08-05T11:52:11.937Z,1.00
2022-08-05T11:54:40.472Z,1.30
2022-08-05T11:57:25.546Z,0.90
2022-08-05T11:59:57.272Z,1.17
2022-08-05T12:02:36.256Z,1.27
2022-08-05T12:05:18.507Z,1.20
2022-08-05T12:08:09.216Z,1.40
2022-08-05T12:10:43.805Z,1.00
2022-08-05T12:13:16.515Z,1.30
2022-08-05T12:15:44.423Z,1.15
2022-08-05T12:18:12.340Z,1.10
2022-08-05T12:20:39.255Z,1.55
2022-08-05T12:23:09.874Z,1.35
2022-08-05T12:25:49.323Z,1.00
2022-08-05T12:28:30.979Z,1.00
2022-08-05T12:30:57.995Z,1.30
2022-08-05T12:33:36.304Z,1.10
2022-08-05T12:36:03.848Z,1.30
2022-08-05T12:38:36.288Z,0.80
2022-08-05T12:41:03.181Z,0.95
2022-08-05T12:43:32.222Z,1.17
2022-08-05T12:45:58.864Z,1.00
2022-08-05T12:48:27.326Z,0.90
2022-08-05T12:51:21.612Z,1.05
2022-08-05T12:53:55.837Z,1.30
2022-08-05T12:56:35.063Z,1.02
2022-08-05T12:59:21.051Z,0.98
2022-08-05T13:02:08.194Z,0.90
2022-08-05T13:04:41.659Z,0.93
2022-08-05T13:07:57.171Z,1.20
2022-08-05T13:10:20.237Z,1.00
2022-08-05T13:12:57.193Z,0.98
2022-08-05T13:15:41.387Z,1.00
2022-08-05T13:18:19.709Z,1.20
2022-08-05T13:20:47.418Z,1.00
2022-08-05T13:23:16.340Z,1.02
2022-08-05T13:25:52.327Z,0.98
2022-08-05T13:28:26.564Z,0.98
2022-08-05T13:30:53.485Z,0.98
2022-08-05T13:34:21.195Z,0.90
2022-08-05T13:36:07.140Z,1.00
2022-08-05T13:38:42.196Z,0.90
2022-08-05T13:41:09.576Z,0.98
2022-08-05T13:43:44.853Z,0.95
2022-08-05T13:46:35.854Z,1.00
2022-08-05T13:49:05.053Z,0.90
2022-08-05T13:51:41.041Z,0.90
2022-08-05T13:56:38.172Z,0.90
2022-08-05T13:59:06.104Z,0.82
2022-08-05T14:01:56.325Z,0.73
2022-08-05T14:04:43.729Z,0.80
2022-08-05T14:07:26.148Z,0.70
2022-08-05T14:10:03.836Z,0.80
2022-08-05T14:12:32.292Z,0.90
2022-08-05T14:14:59.444Z,0.90
2022-08-05T14:17:26.767Z,0.68
2022-08-05T14:20:01.002Z,0.60
2022-08-05T14:22:30.460Z,1.00
2022-08-05T14:25:00.851Z,0.90
2022-08-05T14:27:28.331Z,0.80
2022-08-05T14:29:57.837Z,0.88
2022-08-05T14:32:27.818Z,0.85
2022-08-05T14:34:54.738Z,0.77
2022-08-05T14:37:24.090Z,0.80
2022-08-05T14:40:10.703Z,0.80
2022-08-05T14:42:41.429Z,0.85
2022-08-05T14:45:09.834Z,0.70
2022-08-05T14:48:02.869Z,0.60
2022-08-05T14:50:23.012Z,0.80
2022-08-05T14:52:56.855Z,0.73
2022-08-05T14:55:24.870Z,0.65
2022-08-05T14:57:56.190Z,0.70
2022-08-05T15:00:27.779Z,0.60
2022-08-05T15:02:55.259Z,0.80
2022-08-05T15:05:21.986Z,0.70
2022-08-05T15:08:12.206Z,0.70
2022-08-05T15:10:46.076Z,0.60
2022-08-05T15:13:13.266Z,0.75
2022-08-05T15:15:54.189Z,0.60
2022-08-05T15:18:22.785Z,0.68
2022-08-05T15:20:49.866Z,0.75
2022-08-05T15:23:17.606Z,0.70
2022-08-05T15:25:53.179Z,0.68
2022-08-05T15:28:27.626Z,0.45
2022-08-05T15:30:54.616Z,0.55
2022-08-05T15:33:53.774Z,0.50
2022-08-05T15:36:11.557Z,0.68
2022-08-05T15:38:44.727Z,0.60
2022-08-05T15:41:20.860Z,0.65
2022-08-05T15:43:50.211Z,0.50
2022-08-05T15:46:16.819Z,0.50
2022-08-05T15:48:52.483Z,0.60
2022-08-05T15:52:12.505Z,0.60
2022-08-05T15:54:12.361Z,0.70
2022-08-05T15:56:41.871Z,0.70
2022-08-05T15:59:08.396Z,0.60
2022-08-05T16:01:39.817Z,0.70
2022-08-05T16:04:18.882Z,0.60
2022-08-05T16:06:45.850Z,0.70
2022-08-05T16:09:12.367Z,0.63
2022-08-05T16:11:43.352Z,0.50
2022-08-05T16:14:10.333Z,0.60
2022-08-05T16:16:44.044Z,0.60
2022-08-05T16:19:18.978Z,0.55
2022-08-05T16:22:02.567Z,0.60
2022-08-05T16:24:40.087Z,0.63
2022-08-05T16:27:09.179Z,0.70
2022-08-05T16:29:37.588Z,0.70
2022-08-05T16:32:05.262Z,0.63
2022-08-05T16:34:32.070Z,0.50
2022-08-05T16:36:58.538Z,0.70
2022-08-05T16:40:05.138Z,0.50
2022-08-05T16:42:14.699Z,0.50
2022-08-05T16:44:57.086Z,0.50
2022-08-05T16:47:29.084Z,0.55
2022-08-05T16:50:05.290Z,0.70
2022-08-05T16:52:32.715Z,0.57
2022-08-05T16:55:00.266Z,0.60
2022-08-05T16:57:53.646Z,0.60
2022-08-05T17:00:14.243Z,0.70
2022-08-05T17:02:52.891Z,0.50
2022-08-05T17:05:19.535Z,0.47
2022-08-05T17:07:54.703Z,0.50
2022-08-05T17:10:21.787Z,0.60
2022-08-05T17:12:54.829Z,0.50
2022-08-05T17:15:21.569Z,0.50
2022-08-05T17:17:55.111Z,0.40
2022-08-05T17:20:22.292Z,0.50
2022-08-05T17:22:55.296Z,0.43
2022-08-05T17:25:39.608Z,0.40
2022-08-05T17:28:06.966Z,0.60
2022-08-05T17:30:50.587Z,0.50
2022-08-05T17:33:24.333Z,0.60
2022-08-05T17:36:08.623Z,0.57
2022-08-05T17:38:36.789Z,0.52
2022-08-05T17:41:03.296Z,0.50
2022-08-05T17:43:47.249Z,0.60
2022-08-05T17:46:18.368Z,0.60
2022-08-05T17:48:44.975Z,0.40
2022-08-05T17:51:14.320Z,0.60
2022-08-05T17:53:50.803Z,0.50
2022-08-05T17:56:21.266Z,0.60
2022-08-05T17:58:49.337Z,0.50
2022-08-05T18:01:15.957Z,0.38
2022-08-05T18:04:03.956Z,0.45
2022-08-05T18:06:31.437Z,0.60
2022-08-05T18:08:58.887Z,0.57
2022-08-05T18:11:33.446Z,0.50
2022-08-05T18:14:01.288Z,0.50
2022-08-05T18:16:30.285Z,0.63
2022-08-05T18:18:57.262Z,0.52
2022-08-05T18:21:26.460Z,0.60
2022-08-05T18:24:12.678Z,0.45
2022-08-05T18:26:40.990Z,0.60
2022-08-05T18:29:10.434Z,0.60
2022-08-05T18:31:37.092Z,0.60
2022-08-05T18:34:12.264Z,0.50
2022-08-05T18:36:39.252Z,0.50
2022-08-05T18:39:09.803Z,0.50
2022-08-05T18:42:04.657Z,0.47
2022-08-05T18:44:35.574Z,0.80
2022-08-05T18:47:16.127Z,0.70
2022-08-05T18:50:01.306Z,0.70
2022-08-05T18:52:33.669Z,0.50
2022-08-05T18:55:05.344Z,0.70
2022-08-05T18:57:43.290Z,0.80
2022-08-05T19:00:20.571Z,0.93
2022-08-05T19:02:47.556Z,0.80
2022-08-05T19:06:13.328Z,1.00
2022-08-05T19:08:02.700Z,1.02
2022-08-05T19:10:30.521Z,1.55
2022-08-05T19:12:57.371Z,2.10
2022-08-05T19:15:57.334Z,1.70
2022-08-05T19:18:13.526Z,1.90
2022-08-05T19:20:48.567Z,1.90
2022-08-05T19:24:04.273Z,2.20
2022-08-05T19:26:03.009Z,2.58
2022-08-05T19:28:32.988Z,2.35
2022-08-05T19:31:00.843Z,2.47
2022-08-05T19:33:35.733Z,2.30
2022-08-05T19:36:05.945Z,2.65
2022-08-05T19:38:33.881Z,2.38
2022-08-05T19:41:02.403Z,2.35
2022-08-05T19:44:05.424Z,2.60
2022-08-05T19:46:29.791Z,2.50
2022-08-05T19:48:57.150Z,2.50
2022-08-05T19:52:06.062Z,2.60
2022-08-05T19:54:25.450Z,2.55
2022-08-05T19:56:56.278Z,2.15
2022-08-05T19:59:55.504Z,2.50
2022-08-05T20:02:09.373Z,2.47
2022-08-05T20:04:37.831Z,2.47
2022-08-05T20:07:13.010Z,2.40
2022-08-05T20:09:55.180Z,2.50
2022-08-05T20:12:24.318Z,2.60
2022-08-05T20:14:52.230Z,2.70
2022-08-05T20:17:19.596Z,2.78
2022-08-05T20:19:50.288Z,2.60
2022-08-05T20:22:16.807Z,2.40
2022-08-05T20:24:43.248Z,2.42
2022-08-05T20:27:11.340Z,2.65
2022-08-05T20:29:38.289Z,2.60
2022-08-05T20:32:06.472Z,2.30
2022-08-05T20:34:33.070Z,2.47
2022-08-05T20:37:00.973Z,2.50
2022-08-05T20:39:36.418Z,2.30
2022-08-05T20:42:04.022Z,2.20
2022-08-05T20:44:32.804Z,2.35
2022-08-05T20:47:05.303Z,2.30
2022-08-05T20:49:39.250Z,2.20
2022-08-05T20:52:06.396Z,2.30
2022-08-05T20:54:43.700Z,2.00
2022-08-05T20:57:24.704Z,2.40
2022-08-05T21:00:20.320Z,2.15
2022-08-05T21:02:56.955Z,2.25
2022-08-05T21:05:24.110Z,1.85
2022-08-05T21:07:52.092Z,1.80
2022-08-05T21:10:19.081Z,2.15
2022-08-05T21:12:58.060Z,1.90
2022-08-05T21:15:33.852Z,1.75
2022-08-05T21:18:00.605Z,2.20
2022-08-05T21:20:32.680Z,1.77
2022-08-05T21:23:00.108Z,1.80
2022-08-05T21:25:34.071Z,1.80
2022-08-05T21:28:01.203Z,1.77
2022-08-05T21:30:27.672Z,1.83
2022-08-05T21:32:55.163Z,1.67
2022-08-05T21:35:29.863Z,1.77
2022-08-05T21:38:09.426Z,1.70
2022-08-05T21:40:36.195Z,1.65
2022-08-05T21:43:08.354Z,1.50
2022-08-05T21:45:56.868Z,1.85
2022-08-05T21:48:27.244Z,1.77
2022-08-05T21:50:54.501Z,1.83
2022-08-05T21:53:21.526Z,1.73
2022-08-05T21:56:05.809Z,1.95
2022-08-05T21:58:42.256Z,1.60
2022-08-05T22:01:24.773Z,1.60
2022-08-05T22:03:53.328Z,1.75
2022-08-05T22:06:22.357Z,1.80
2022-08-05T22:08:51.651Z,1.70
2022-08-05T22:11:18.900Z,1.88
2022-08-05T22:14:06.358Z,2.00
2022-08-05T22:16:52.264Z,1.80
2022-08-05T22:20:02.641Z,1.65
2022-08-05T22:22:06.964Z,1.98
2022-08-05T22:24:53.616Z,1.90
2022-08-05T22:28:09.825Z,1.80
2022-08-05T22:30:35.292Z,1.80
2022-08-05T22:33:02.755Z,1.70
2022-08-05T22:35:47.830Z,1.70
2022-08-05T22:38:15.817Z,1.50
2022-08-05T22:40:42.343Z,1.50
2022-08-05T22:43:16.759Z,1.60
2022-08-05T22:46:08.824Z,1.70
2022-08-05T22:48:40.702Z,1.80
2022-08-05T22:51:07.714Z,1.77
2022-08-05T22:53:35.934Z,1.70
2022-08-05T22:56:03.092Z,1.60
2022-08-05T22:58:29.569Z,1.42
2022-08-05T23:00:59.407Z,1.50
2022-08-05T23:03:57.872Z,1.50
2022-08-05T23:06:12.418Z,1.60
2022-08-05T23:08:38.864Z,1.77
2022-08-05T23:11:06.029Z,1.60
2022-08-05T23:13:35.131Z,1.52
2022-08-05T23:16:03.637Z,1.52
2022-08-05T23:18:30.265Z,1.50
2022-08-05T23:20:58.840Z,2.00
2022-08-05T23:23:25.890Z,1.50
2022-08-05T23:25:56.425Z,1.60
2022-08-05T23:28:24.078Z,1.10
2022-08-05T23:30:55.802Z,1.25
2022-08-05T23:34:03.828Z,1.38
2022-08-05T23:36:40.125Z,1.25
2022-08-05T23:39:11.110Z,1.63
2022-08-05T23:41:48.691Z,1.20
2022-08-05T23:44:16.680Z,1.30
2022-08-05T23:46:43.261Z,1.27
2022-08-05T23:49:16.894Z,1.13
2022-08-05T23:52:02.104Z,1.27
2022-08-05T23:54:34.234Z,1.35
2022-08-05T23:57:04.703Z,1.10
